sensor_id;sensor_type;location;lat;lon;timestamp;pressure;altitude;pressure_sealevel;temperature;humidity
22181;BME280;11256;50.830;12.834;2024-03-07T00:00:35;98327.78;;;6.39;59.38
22181;BME280;11256;50.830;12.834;2024-03-07T00:05:35;98336.81;;;6.33;59.56
22181;BME280;11256;50.830;12.834;2024-03-07T00:10:35;98328.75;;;6.33;59.26
22181;BME280;11256;50.830;12.834;2024-03-07T00:15:36;98333.78;;;6.29;59.77
22181;BME280;11256;50.830;12.834;2024-03-07T00:20:36;98329.69;;;6.27;59.86
22181;BME280;11256;50.830;12.834;2024-03-07T00:25:38;98329.19;;;6.30;59.55
22181;BME280;11256;50.830;12.834;2024-03-07T00:30:38;98323.00;;;6.29;59.68
22181;BME280;11256;50.830;12.834;2024-03-07T00:35:38;98323.00;;;6.29;59.59
22181;BME280;11256;50.830;12.834;2024-03-07T00:40:38;98332.38;;;6.27;59.60
22181;BME280;11256;50.830;12.834;2024-03-07T00:45:39;98317.03;;;6.27;59.52
22181;BME280;11256;50.830;12.834;2024-03-07T00:50:39;98317.88;;;6.28;59.82
22181;BME280;11256;50.830;12.834;2024-03-07T00:55:42;98323.25;;;6.28;59.62
22181;BME280;11256;50.830;12.834;2024-03-07T01:00:44;98294.00;;;6.20;59.62
22181;BME280;11256;50.830;12.834;2024-03-07T01:05:44;98303.59;;;6.27;60.05
22181;BME280;11256;50.830;12.834;2024-03-07T01:10:45;98299.59;;;6.30;59.82
22181;BME280;11256;50.830;12.834;2024-03-07T01:15:45;98310.38;;;6.30;59.98
22181;BME280;11256;50.830;12.834;2024-03-07T01:20:45;98304.97;;;6.30;59.79
22181;BME280;11256;50.830;12.834;2024-03-07T01:25:46;98298.44;;;6.26;59.43
22181;BME280;11256;50.830;12.834;2024-03-07T01:30:46;98299.25;;;6.26;60.05
22181;BME280;11256;50.830;12.834;2024-03-07T01:35:47;98283.72;;;6.17;60.01
22181;BME280;11256;50.830;12.834;2024-03-07T01:40:47;98309.34;;;6.19;60.35
22181;BME280;11256;50.830;12.834;2024-03-07T01:45:49;98293.31;;;6.13;60.04
22181;BME280;11256;50.830;12.834;2024-03-07T01:50:58;98297.78;;;6.07;60.53
22181;BME280;11256;50.830;12.834;2024-03-07T01:55:59;98300.59;;;6.01;60.84
22181;BME280;11256;50.830;12.834;2024-03-07T02:01:00;98299.44;;;5.97;60.86
22181;BME280;11256;50.830;12.834;2024-03-07T02:06:00;98273.38;;;5.86;60.55
22181;BME280;11256;50.830;12.834;2024-03-07T02:11:03;98285.41;;;5.95;61.29
22181;BME280;11256;50.830;12.834;2024-03-07T02:16:03;98274.66;;;5.95;61.55
22181;BME280;11256;50.830;12.834;2024-03-07T02:21:07;98272.19;;;5.93;60.92
22181;BME280;11256;50.830;12.834;2024-03-07T02:26:09;98254.53;;;5.86;61.38
22181;BME280;11256;50.830;12.834;2024-03-07T02:31:09;98269.84;;;5.97;61.40
22181;BME280;11256;50.830;12.834;2024-03-07T02:36:09;98270.91;;;5.96;61.53
22181;BME280;11256;50.830;12.834;2024-03-07T02:41:10;98260.16;;;5.96;61.26
22181;BME280;11256;50.830;12.834;2024-03-07T02:46:10;98267.38;;;5.95;61.05
22181;BME280;11256;50.830;12.834;2024-03-07T02:51:11;98250.78;;;5.87;61.63
22181;BME280;11256;50.830;12.834;2024-03-07T02:56:12;98255.50;;;5.91;60.98
22181;BME280;11256;50.830;12.834;2024-03-07T03:01:12;98249.75;;;5.88;61.33
22181;BME280;11256;50.830;12.834;2024-03-07T03:06:12;98248.34;;;5.85;61.32
22181;BME280;11256;50.830;12.834;2024-03-07T03:11:13;98234.41;;;5.77;61.31
22181;BME280;11256;50.830;12.834;2024-03-07T03:16:14;98246.44;;;5.74;61.52
22181;BME280;11256;50.830;12.834;2024-03-07T03:21:14;98251.53;;;5.82;61.38
22181;BME280;11256;50.830;12.834;2024-03-07T03:26:15;98244.59;;;5.75;61.49
22181;BME280;11256;50.830;12.834;2024-03-07T03:31:16;98250.13;;;5.80;62.12
22181;BME280;11256;50.830;12.834;2024-03-07T03:36:16;98252.44;;;5.76;61.97
22181;BME280;11256;50.830;12.834;2024-03-07T03:41:16;98247.84;;;5.77;62.15
22181;BME280;11256;50.830;12.834;2024-03-07T03:46:17;98246.44;;;5.74;61.85
22181;BME280;11256;50.830;12.834;2024-03-07T03:51:17;98242.97;;;5.74;62.25
22181;BME280;11256;50.830;12.834;2024-03-07T03:56:18;98245.66;;;5.74;62.29
22181;BME280;11256;50.830;12.834;2024-03-07T04:01:18;98246.13;;;5.71;62.45
22181;BME280;11256;50.830;12.834;2024-03-07T04:06:19;98246.13;;;5.71;62.54
22181;BME280;11256;50.830;12.834;2024-03-07T04:11:19;98245.09;;;5.72;62.49
22181;BME280;11256;50.830;12.834;2024-03-07T04:16:19;98249.06;;;5.69;62.42
22181;BME280;11256;50.830;12.834;2024-03-07T04:21:20;98249.41;;;5.73;62.89
22181;BME280;11256;50.830;12.834;2024-03-07T04:26:20;98242.97;;;5.74;62.49
22181;BME280;11256;50.830;12.834;2024-03-07T04:31:20;98239.78;;;5.77;62.83
22181;BME280;11256;50.830;12.834;2024-03-07T04:36:21;98241.44;;;5.78;62.95
22181;BME280;11256;50.830;12.834;2024-03-07T04:41:21;98233.38;;;5.78;62.68
22181;BME280;11256;50.830;12.834;2024-03-07T04:46:21;98228.59;;;5.80;63.13
22181;BME280;11256;50.830;12.834;2024-03-07T04:51:22;98233.13;;;5.79;62.45
22181;BME280;11256;50.830;12.834;2024-03-07T04:56:22;98230.69;;;5.78;62.28
22181;BME280;11256;50.830;12.834;2024-03-07T05:01:22;98224.94;;;5.74;62.97
22181;BME280;11256;50.830;12.834;2024-03-07T05:06:23;98234.41;;;5.77;62.97
22181;BME280;11256;50.830;12.834;2024-03-07T05:11:23;98231.50;;;5.78;63.10
22181;BME280;11256;50.830;12.834;2024-03-07T05:16:24;98236.88;;;5.78;62.93
22181;BME280;11256;50.830;12.834;2024-03-07T05:21:26;98234.81;;;5.80;63.11
22181;BME280;11256;50.830;12.834;2024-03-07T05:26:41;98234.81;;;5.80;62.97
22181;BME280;11256;50.830;12.834;2024-03-07T05:31:41;98232.56;;;5.77;63.03
22181;BME280;11256;50.830;12.834;2024-03-07T05:36:48;98233.59;;;5.76;62.86
22181;BME280;11256;50.830;12.834;2024-03-07T05:41:48;98236.31;;;5.76;63.39
22181;BME280;11256;50.830;12.834;2024-03-07T05:46:49;98236.53;;;5.75;63.54
22181;BME280;11256;50.830;12.834;2024-03-07T05:51:50;98237.59;;;5.74;63.41
22181;BME280;11256;50.830;12.834;2024-03-07T05:56:51;98240.63;;;5.77;67.28
22181;BME280;11256;50.830;12.834;2024-03-07T06:01:51;98241.91;;;5.75;66.21
22181;BME280;11256;50.830;12.834;2024-03-07T06:06:51;98240.72;;;5.71;69.03
22181;BME280;11256;50.830;12.834;2024-03-07T06:11:52;98254.56;;;5.63;71.24
22181;BME280;11256;50.830;12.834;2024-03-07T06:16:52;98231.19;;;5.52;69.60
22181;BME280;11256;50.830;12.834;2024-03-07T06:21:53;98252.56;;;5.58;68.08
22181;BME280;11256;50.830;12.834;2024-03-07T06:26:54;98246.84;;;5.43;69.36
22181;BME280;11256;50.830;12.834;2024-03-07T06:32:03;98256.88;;;5.48;69.34
22181;BME280;11256;50.830;12.834;2024-03-07T06:37:04;98259.00;;;5.46;70.40
22181;BME280;11256;50.830;12.834;2024-03-07T06:42:04;98266.34;;;5.39;72.32
22181;BME280;11256;50.830;12.834;2024-03-07T06:47:05;98248.25;;;5.23;71.54
22181;BME280;11256;50.830;12.834;2024-03-07T06:52:06;98260.75;;;5.29;72.16
22181;BME280;11256;50.830;12.834;2024-03-07T06:57:06;98262.34;;;5.18;72.34
22181;BME280;11256;50.830;12.834;2024-03-07T07:02:06;98271.81;;;5.21;71.76
22181;BME280;11256;50.830;12.834;2024-03-07T07:07:08;98265.50;;;5.27;70.76
22181;BME280;11256;50.830;12.834;2024-03-07T07:12:10;98271.63;;;5.34;69.40
22181;BME280;11256;50.830;12.834;2024-03-07T07:17:11;98256.78;;;5.54;70.59
22181;BME280;11256;50.830;12.834;2024-03-07T07:22:13;98282.09;;;6.16;72.52
22181;BME280;11256;50.830;12.834;2024-03-07T07:27:14;98271.03;;;7.29;71.85
22181;BME280;11256;50.830;12.834;2024-03-07T07:32:15;98283.44;;;8.61;67.26
22181;BME280;11256;50.830;12.834;2024-03-07T07:37:15;98276.81;;;9.68;67.91
22181;BME280;11256;50.830;12.834;2024-03-07T07:42:15;98281.72;;;10.69;64.11
22181;BME280;11256;50.830;12.834;2024-03-07T07:47:15;98278.59;;;11.27;63.87
22181;BME280;11256;50.830;12.834;2024-03-07T07:52:16;98271.81;;;11.49;57.32
22181;BME280;11256;50.830;12.834;2024-03-07T07:57:16;98267.75;;;11.42;56.57
22181;BME280;11256;50.830;12.834;2024-03-07T08:02:16;98262.56;;;11.00;56.92
22181;BME280;11256;50.830;12.834;2024-03-07T08:07:17;98263.72;;;10.38;56.72
22181;BME280;11256;50.830;12.834;2024-03-07T08:12:17;98261.25;;;9.85;56.80
22181;BME280;11256;50.830;12.834;2024-03-07T08:17:17;98256.69;;;9.17;57.42
22181;BME280;11256;50.830;12.834;2024-03-07T08:22:18;98262.91;;;8.65;57.19
22181;BME280;11256;50.830;12.834;2024-03-07T08:27:19;98279.00;;;8.12;57.65
22181;BME280;11256;50.830;12.834;2024-03-07T08:32:19;98268.94;;;7.86;58.35
22181;BME280;11256;50.830;12.834;2024-03-07T08:37:20;98268.97;;;7.36;58.06
22181;BME280;11256;50.830;12.834;2024-03-07T08:42:21;98275.31;;;6.81;59.57
22181;BME280;11256;50.830;12.834;2024-03-07T08:47:21;98272.31;;;6.66;60.60
22181;BME280;11256;50.830;12.834;2024-03-07T08:52:22;98267.38;;;6.46;61.30
22181;BME280;11256;50.830;12.834;2024-03-07T08:57:22;98261.03;;;6.13;61.14
22181;BME280;11256;50.830;12.834;2024-03-07T09:02:23;98264.19;;;6.10;62.21
22181;BME280;11256;50.830;12.834;2024-03-07T09:07:23;98274.50;;;6.13;61.15
22181;BME280;11256;50.830;12.834;2024-03-07T09:12:24;98270.44;;;5.87;58.92
22181;BME280;11256;50.830;12.834;2024-03-07T09:17:27;98270.91;;;5.73;59.04
22181;BME280;11256;50.830;12.834;2024-03-07T09:22:27;98265.31;;;5.63;58.46
22181;BME280;11256;50.830;12.834;2024-03-07T09:27:29;98272.69;;;5.56;57.21
22181;BME280;11256;50.830;12.834;2024-03-07T09:32:30;98272.06;;;5.54;57.09
22181;BME280;11256;50.830;12.834;2024-03-07T09:37:33;98258.41;;;5.55;59.02
22181;BME280;11256;50.830;12.834;2024-03-07T09:42:33;98266.69;;;5.54;58.09
22181;BME280;11256;50.830;12.834;2024-03-07T09:47:34;98245.66;;;5.28;57.88
22181;BME280;11256;50.830;12.834;2024-03-07T09:52:34;98265.63;;;5.32;58.04
22181;BME280;11256;50.830;12.834;2024-03-07T09:57:36;98261.06;;;5.21;58.28
22181;BME280;11256;50.830;12.834;2024-03-07T10:02:39;98266.44;;;5.21;58.86
22181;BME280;11256;50.830;12.834;2024-03-07T10:07:41;98267.81;;;5.00;59.15
22181;BME280;11256;50.830;12.834;2024-03-07T10:12:42;98260.69;;;4.94;59.59
22181;BME280;11256;50.830;12.834;2024-03-07T10:17:44;98262.59;;;5.05;59.48
22181;BME280;11256;50.830;12.834;2024-03-07T10:22:44;98268.06;;;4.99;56.66
22181;BME280;11256;50.830;12.834;2024-03-07T10:27:48;98259.06;;;5.05;55.17
22181;BME280;11256;50.830;12.834;2024-03-07T10:32:55;98257.13;;;5.12;55.54
22181;BME280;11256;50.830;12.834;2024-03-07T10:37:56;98228.16;;;5.14;56.06
22181;BME280;11256;50.830;12.834;2024-03-07T10:42:57;98231.75;;;5.54;56.44
22181;BME280;11256;50.830;12.834;2024-03-07T10:47:58;98257.13;;;5.81;56.36
22181;BME280;11256;50.830;12.834;2024-03-07T11:04:00;98253.06;;;6.18;55.73
22181;BME280;11256;50.830;12.834;2024-03-07T11:09:01;98245.19;;;6.00;53.33
22181;BME280;11256;50.830;12.834;2024-03-07T11:14:04;98248.72;;;5.89;52.28
22181;BME280;11256;50.830;12.834;2024-03-07T11:19:27;98256.19;;;5.87;53.56
22181;BME280;11256;50.830;12.834;2024-03-07T11:24:30;98219.38;;;5.64;53.55
22181;BME280;11256;50.830;12.834;2024-03-07T11:29:48;98244.63;;;5.86;54.94
22181;BME280;11256;50.830;12.834;2024-03-07T11:34:53;98246.13;;;5.94;53.95
22181;BME280;11256;50.830;12.834;2024-03-07T11:39:54;98243.50;;;5.99;54.62
22181;BME280;11256;50.830;12.834;2024-03-07T11:44:58;98220.97;;;6.00;54.50
22181;BME280;11256;50.830;12.834;2024-03-07T11:49:58;98236.50;;;6.09;54.69
22181;BME280;11256;50.830;12.834;2024-03-07T11:54:58;98216.84;;;6.09;54.39
22181;BME280;11256;50.830;12.834;2024-03-07T12:00:04;98228.41;;;6.21;53.95
22181;BME280;11256;50.830;12.834;2024-03-07T12:05:14;98226.50;;;6.21;53.97
22181;BME280;11256;50.830;12.834;2024-03-07T12:10:19;98216.38;;;6.12;53.80
22181;BME280;11256;50.830;12.834;2024-03-07T12:15:24;98212.41;;;6.03;54.33
22181;BME280;11256;50.830;12.834;2024-03-07T12:20:25;98212.31;;;5.98;54.10
22181;BME280;11256;50.830;12.834;2024-03-07T12:25:27;98208.47;;;5.94;54.54
22181;BME280;11256;50.830;12.834;2024-03-07T12:30:29;98213.38;;;5.97;54.77
22181;BME280;11256;50.830;12.834;2024-03-07T12:35:35;98209.03;;;6.07;54.84
22181;BME280;11256;50.830;12.834;2024-03-07T12:40:35;98197.91;;;6.04;53.66
22181;BME280;11256;50.830;12.834;2024-03-07T12:45:37;98204.50;;;5.96;53.57
22181;BME280;11256;50.830;12.834;2024-03-07T12:50:37;98197.00;;;5.87;53.53
22181;BME280;11256;50.830;12.834;2024-03-07T12:55:39;98200.63;;;5.92;53.81
22181;BME280;11256;50.830;12.834;2024-03-07T13:00:42;98195.94;;;5.99;54.07
22181;BME280;11256;50.830;12.834;2024-03-07T13:05:44;98187.72;;;6.06;53.95
22181;BME280;11256;50.830;12.834;2024-03-07T13:10:44;98190.13;;;6.19;53.95
22181;BME280;11256;50.830;12.834;2024-03-07T13:15:45;98183.22;;;6.23;53.82
22181;BME280;11256;50.830;12.834;2024-03-07T13:20:47;98178.59;;;6.35;54.76
22181;BME280;11256;50.830;12.834;2024-03-07T13:25:48;98172.84;;;6.43;54.47
22181;BME280;11256;50.830;12.834;2024-03-07T13:30:48;98182.78;;;6.59;54.09
22181;BME280;11256;50.830;12.834;2024-03-07T13:35:49;98180.09;;;6.59;54.68
22181;BME280;11256;50.830;12.834;2024-03-07T13:40:50;98183.25;;;6.67;54.98
22181;BME280;11256;50.830;12.834;2024-03-07T13:45:50;98190.41;;;6.62;54.78
22181;BME280;11256;50.830;12.834;2024-03-07T13:50:51;98169.34;;;6.75;55.47
22181;BME280;11256;50.830;12.834;2024-03-07T14:17:43;98188.91;;;6.38;56.40
22181;BME280;11256;50.830;12.834;2024-03-07T14:34:02;98185.16;;;6.11;56.56
22181;BME280;11256;50.830;12.834;2024-03-07T14:39:05;98182.16;;;5.96;56.57
22181;BME280;11256;50.830;12.834;2024-03-07T14:44:05;98161.50;;;5.85;57.00
22181;BME280;11256;50.830;12.834;2024-03-07T14:49:09;98163.38;;;5.73;56.54
22181;BME280;11256;50.830;12.834;2024-03-07T14:54:10;98180.63;;;5.77;57.07
22181;BME280;11256;50.830;12.834;2024-03-07T14:59:11;98182.75;;;5.75;57.23
22181;BME280;11256;50.830;12.834;2024-03-07T15:04:13;98171.00;;;5.64;56.15
22181;BME280;11256;50.830;12.834;2024-03-07T15:09:14;98171.47;;;5.50;55.45
22181;BME280;11256;50.830;12.834;2024-03-07T15:14:15;98170.22;;;5.41;55.91
22181;BME280;11256;50.830;12.834;2024-03-07T15:19:15;98167.84;;;5.33;55.28
22181;BME280;11256;50.830;12.834;2024-03-07T15:24:16;98150.13;;;5.09;55.72
22181;BME280;11256;50.830;12.834;2024-03-07T15:29:16;98169.63;;;5.27;55.99
22181;BME280;11256;50.830;12.834;2024-03-07T15:34:21;98166.38;;;5.14;55.31
22181;BME280;11256;50.830;12.834;2024-03-07T15:39:22;98162.28;;;5.00;55.42
22181;BME280;11256;50.830;12.834;2024-03-07T15:44:30;98161.00;;;4.91;55.83
22181;BME280;11256;50.830;12.834;2024-03-07T15:49:30;98163.44;;;4.81;55.90
22181;BME280;11256;50.830;12.834;2024-03-07T15:54:31;98165.53;;;4.79;56.01
22181;BME280;11256;50.830;12.834;2024-03-07T15:59:31;98170.78;;;4.74;56.16
22181;BME280;11256;50.830;12.834;2024-03-07T16:04:31;98169.94;;;4.62;55.95
22181;BME280;11256;50.830;12.834;2024-03-07T16:09:32;98160.91;;;4.45;56.42
22181;BME280;11256;50.830;12.834;2024-03-07T16:14:32;98171.66;;;4.45;57.09
22181;BME280;11256;50.830;12.834;2024-03-07T16:19:33;98154.34;;;4.29;56.72
22181;BME280;11256;50.830;12.834;2024-03-07T16:24:34;98165.88;;;4.30;56.53
22181;BME280;11256;50.830;12.834;2024-03-07T16:29:38;98173.56;;;4.15;56.67
22181;BME280;11256;50.830;12.834;2024-03-07T16:34:38;98170.25;;;4.13;56.23
22181;BME280;11256;50.830;12.834;2024-03-07T16:39:38;98175.41;;;4.14;56.79
22181;BME280;11256;50.830;12.834;2024-03-07T16:44:40;98162.69;;;4.10;57.85
22181;BME280;11256;50.830;12.834;2024-03-07T16:49:41;98168.19;;;4.15;56.72
22181;BME280;11256;50.830;12.834;2024-03-07T16:54:41;98158.47;;;4.02;56.61
22181;BME280;11256;50.830;12.834;2024-03-07T16:59:42;98178.56;;;4.11;56.56
22181;BME280;11256;50.830;12.834;2024-03-07T17:04:42;98179.22;;;4.07;56.04
22181;BME280;11256;50.830;12.834;2024-03-07T17:09:43;98172.56;;;3.98;56.11
22181;BME280;11256;50.830;12.834;2024-03-07T17:14:44;98170.75;;;3.92;56.45
22181;BME280;11256;50.830;12.834;2024-03-07T17:19:44;98186.97;;;3.97;56.55
22181;BME280;11256;50.830;12.834;2024-03-07T17:24:47;98185.34;;;3.96;56.69
22181;BME280;11256;50.830;12.834;2024-03-07T17:29:49;98180.69;;;3.91;56.50
22181;BME280;11256;50.830;12.834;2024-03-07T17:34:51;98171.75;;;3.79;56.60
22181;BME280;11256;50.830;12.834;2024-03-07T17:39:51;98181.72;;;3.90;57.67
22181;BME280;11256;50.830;12.834;2024-03-07T17:44:53;98181.47;;;3.92;57.73
22181;BME280;11256;50.830;12.834;2024-03-07T17:49:55;98184.78;;;3.94;58.09
22181;BME280;11256;50.830;12.834;2024-03-07T17:54:55;98183.72;;;3.95;58.39
22181;BME280;11256;50.830;12.834;2024-03-07T17:59:55;98175.69;;;3.95;58.00
22181;BME280;11256;50.830;12.834;2024-03-07T18:04:56;98178.34;;;3.95;58.23
22181;BME280;11256;50.830;12.834;2024-03-07T18:09:57;98178.50;;;4.00;58.13
22181;BME280;11256;50.830;12.834;2024-03-07T18:14:58;98173.75;;;3.84;57.59
22181;BME280;11256;50.830;12.834;2024-03-07T18:20:00;98175.38;;;3.85;57.94
22181;BME280;11256;50.830;12.834;2024-03-07T18:25:02;98177.28;;;3.84;57.83
22181;BME280;11256;50.830;12.834;2024-03-07T18:30:03;98176.06;;;3.80;57.63
22181;BME280;11256;50.830;12.834;2024-03-07T18:35:11;98175.47;;;3.78;57.79
22181;BME280;11256;50.830;12.834;2024-03-07T18:40:12;98161.44;;;3.65;57.88
22181;BME280;11256;50.830;12.834;2024-03-07T18:45:20;98172.88;;;3.72;57.77
22181;BME280;11256;50.830;12.834;2024-03-07T18:50:22;98181.97;;;3.71;57.67
22181;BME280;11256;50.830;12.834;2024-03-07T18:55:23;98186.13;;;3.67;57.98
22181;BME280;11256;50.830;12.834;2024-03-07T19:00:30;98179.50;;;3.69;59.14
22181;BME280;11256;50.830;12.834;2024-03-07T19:05:36;98167.59;;;3.65;58.36
22181;BME280;11256;50.830;12.834;2024-03-07T19:10:41;98156.38;;;3.57;58.13
22181;BME280;11256;50.830;12.834;2024-03-07T19:15:43;98176.22;;;3.67;58.63
22181;BME280;11256;50.830;12.834;2024-03-07T19:20:46;98164.22;;;3.70;58.51
22181;BME280;11256;50.830;12.834;2024-03-07T19:25:47;98167.16;;;3.68;59.54
22181;BME280;11256;50.830;12.834;2024-03-07T19:30:53;98165.91;;;3.71;58.46
22181;BME280;11256;50.830;12.834;2024-03-07T19:35:55;98160.41;;;3.66;58.25
22181;BME280;11256;50.830;12.834;2024-03-07T19:40:56;98161.88;;;3.62;58.24
22181;BME280;11256;50.830;12.834;2024-03-07T19:45:57;98153.69;;;3.57;58.50
22181;BME280;11256;50.830;12.834;2024-03-07T19:50:57;98136.75;;;3.45;58.77
22181;BME280;11256;50.830;12.834;2024-03-07T19:56:00;98143.59;;;3.41;58.34
22181;BME280;11256;50.830;12.834;2024-03-07T20:01:03;98144.41;;;3.41;58.71
22181;BME280;11256;50.830;12.834;2024-03-07T20:06:04;98142.38;;;3.37;58.61
22181;BME280;11256;50.830;12.834;2024-03-07T20:11:04;98133.91;;;3.40;59.39
22181;BME280;11256;50.830;12.834;2024-03-07T20:16:06;98136.59;;;3.40;59.00
22181;BME280;11256;50.830;12.834;2024-03-07T20:21:07;98127.97;;;3.38;59.01
22181;BME280;11256;50.830;12.834;2024-03-07T20:26:09;98121.34;;;3.40;60.30
22181;BME280;11256;50.830;12.834;2024-03-07T20:31:09;98124.25;;;3.39;59.09
22181;BME280;11256;50.830;12.834;2024-03-07T20:36:10;98129.13;;;3.42;58.85
22181;BME280;11256;50.830;12.834;2024-03-07T20:41:10;98121.44;;;3.34;59.17
22181;BME280;11256;50.830;12.834;2024-03-07T20:46:11;98129.81;;;3.37;60.01
22181;BME280;11256;50.830;12.834;2024-03-07T20:51:11;98120.22;;;3.30;59.37
22181;BME280;11256;50.830;12.834;2024-03-07T20:56:12;98125.16;;;3.33;59.56
22181;BME280;11256;50.830;12.834;2024-03-07T21:01:13;98113.81;;;3.31;59.58
22181;BME280;11256;50.830;12.834;2024-03-07T21:06:14;98117.34;;;3.31;60.34
22181;BME280;11256;50.830;12.834;2024-03-07T21:11:23;98110.72;;;3.34;60.22
22181;BME280;11256;50.830;12.834;2024-03-07T21:16:25;98091.81;;;3.29;61.02
22181;BME280;11256;50.830;12.834;2024-03-07T21:21:28;98110.19;;;3.43;60.72
22181;BME280;11256;50.830;12.834;2024-03-07T21:26:28;98100.28;;;3.44;61.51
22181;BME280;11256;50.830;12.834;2024-03-07T21:31:28;98098.06;;;3.41;60.85
22181;BME280;11256;50.830;12.834;2024-03-07T21:36:29;98094.09;;;3.43;61.46
22181;BME280;11256;50.830;12.834;2024-03-07T21:41:29;98085.13;;;3.38;61.22
22181;BME280;11256;50.830;12.834;2024-03-07T21:46:31;98086.84;;;3.32;61.41
22181;BME280;11256;50.830;12.834;2024-03-07T21:51:33;98085.56;;;3.35;61.75
22181;BME280;11256;50.830;12.834;2024-03-07T21:56:35;98081.53;;;3.26;61.61
22181;BME280;11256;50.830;12.834;2024-03-07T22:01:36;98079.47;;;3.28;61.73
22181;BME280;11256;50.830;12.834;2024-03-07T22:06:36;98057.19;;;3.16;61.22
22181;BME280;11256;50.830;12.834;2024-03-07T22:11:37;98068.91;;;3.15;61.67
22181;BME280;11256;50.830;12.834;2024-03-07T22:16:38;98070.41;;;3.11;61.41
22181;BME280;11256;50.830;12.834;2024-03-07T22:21:39;98069.66;;;3.04;61.70
22181;BME280;11256;50.830;12.834;2024-03-07T22:26:40;98068.91;;;2.97;61.58
22181;BME280;11256;50.830;12.834;2024-03-07T22:31:43;98077.38;;;2.94;61.26
22181;BME280;11256;50.830;12.834;2024-03-07T22:36:48;98072.94;;;2.88;61.51
22181;BME280;11256;50.830;12.834;2024-03-07T22:41:51;98073.38;;;2.85;61.82
22181;BME280;11256;50.830;12.834;2024-03-07T22:46:52;98064.00;;;2.76;61.73
22181;BME280;11256;50.830;12.834;2024-03-07T22:51:55;98046.00;;;2.65;61.44
22181;BME280;11256;50.830;12.834;2024-03-07T22:56:56;98059.91;;;2.73;61.56
22181;BME280;11256;50.830;12.834;2024-03-07T23:01:56;98052.56;;;2.69;61.72
22181;BME280;11256;50.830;12.834;2024-03-07T23:06:57;98058.81;;;2.63;61.62
22181;BME280;11256;50.830;12.834;2024-03-07T23:11:57;98033.38;;;2.54;61.97
22181;BME280;11256;50.830;12.834;2024-03-07T23:16:58;98052.72;;;2.56;61.49
22181;BME280;11256;50.830;12.834;2024-03-07T23:21:58;98042.28;;;2.48;61.70
22181;BME280;11256;50.830;12.834;2024-03-07T23:26:58;98048.66;;;2.47;61.69
22181;BME280;11256;50.830;12.834;2024-03-07T23:31:59;98026.97;;;2.37;61.55
22181;BME280;11256;50.830;12.834;2024-03-07T23:36:59;98043.59;;;2.39;62.01
22181;BME280;11256;50.830;12.834;2024-03-07T23:41:59;98040.53;;;2.35;61.96
22181;BME280;11256;50.830;12.834;2024-03-07T23:47:01;98028.72;;;2.25;61.96
22181;BME280;11256;50.830;12.834;2024-03-07T23:52:01;98033.03;;;2.26;62.15
22181;BME280;11256;50.830;12.834;2024-03-07T23:57:01;98029.97;;;2.22;62.04
